sensor_id;sensor_type;location;lat;lon;timestamp;pressure;altitude;pressure_sealevel;temperature;humidity
34185;BME280;20454;48.100;11.776;2022-08-20T00:00:53;95280.81;;;17.92;100.00
34185;BME280;20454;48.100;11.776;2022-08-20T00:03:43;95282.44;;;17.93;100.00
34185;BME280;20454;48.100;11.776;2022-08-20T00:06:17;95282.75;;;17.88;100.00
34185;BME280;20454;48.100;11.776;2022-08-20T00:08:45;95278.22;;;17.83;100.00
34185;BME280;20454;48.100;11.776;2022-08-20T00:11:20;95273.34;;;17.80;100.00
34185;BME280;20454;48.100;11.776;2022-08-20T00:13:52;95278.56;;;17.78;100.00
34185;BME280;20454;48.100;11.776;2022-08-20T00:16:21;95278.09;;;17.76;100.00
34185;BME280;20454;48.100;11.776;2022-08-20T00:18:47;95279.28;;;17.75;100.00
34185;BME280;20454;48.100;11.776;2022-08-20T00:21:16;95277.22;;;17.72;100.00
34185;BME280;20454;48.100;11.776;2022-08-20T00:23:46;95277.22;;;17.72;100.00
34185;BME280;20454;48.100;11.776;2022-08-20T00:26:13;95286.88;;;17.71;100.00
34185;BME280;20454;48.100;11.776;2022-08-20T00:28:39;95286.88;;;17.71;100.00
34185;BME280;20454;48.100;11.776;2022-08-20T00:31:08;95290.94;;;17.74;100.00
34185;BME280;20454;48.100;11.776;2022-08-20T00:33:35;95295.88;;;17.80;100.00
34185;BME280;20454;48.100;11.776;2022-08-20T00:36:03;95287.44;;;17.80;100.00
34185;BME280;20454;48.100;11.776;2022-08-20T00:38:36;95281.38;;;17.78;100.00
34185;BME280;20454;48.100;11.776;2022-08-20T00:41:03;95290.25;;;17.80;100.00
34185;BME280;20454;48.100;11.776;2022-08-20T00:43:38;95282.56;;;17.77;100.00
34185;BME280;20454;48.100;11.776;2022-08-20T00:46:24;95298.31;;;17.82;100.00
34185;BME280;20454;48.100;11.776;2022-08-20T00:48:53;95298.75;;;17.84;100.00
34185;BME280;20454;48.100;11.776;2022-08-20T00:51:41;95300.00;;;17.86;100.00
34185;BME280;20454;48.100;11.776;2022-08-20T00:54:30;95304.03;;;17.85;100.00
34185;BME280;20454;48.100;11.776;2022-08-20T00:57:21;95311.69;;;17.88;100.00
34185;BME280;20454;48.100;11.776;2022-08-20T00:59:49;95306.00;;;17.85;100.00
34185;BME280;20454;48.100;11.776;2022-08-20T01:02:16;95315.72;;;17.87;100.00
34185;BME280;20454;48.100;11.776;2022-08-20T01:04:44;95320.97;;;17.89;100.00
34185;BME280;20454;48.100;11.776;2022-08-20T01:07:24;95310.91;;;17.88;100.00
34185;BME280;20454;48.100;11.776;2022-08-20T01:10:13;95306.06;;;17.88;100.00
34185;BME280;20454;48.100;11.776;2022-08-20T01:12:44;95317.81;;;17.90;100.00
34185;BME280;20454;48.100;11.776;2022-08-20T01:15:14;95319.41;;;17.91;100.00
34185;BME280;20454;48.100;11.776;2022-08-20T01:17:46;95312.16;;;17.90;100.00
34185;BME280;20454;48.100;11.776;2022-08-20T01:20:26;95317.81;;;17.90;100.00
34185;BME280;20454;48.100;11.776;2022-08-20T01:26:25;95318.59;;;17.91;100.00
34185;BME280;20454;48.100;11.776;2022-08-20T01:29:10;95321.78;;;17.89;100.00
34185;BME280;20454;48.100;11.776;2022-08-20T01:31:39;95316.06;;;17.86;100.00
34185;BME280;20454;48.100;11.776;2022-08-20T01:34:10;95316.06;;;17.86;100.00
34185;BME280;20454;48.100;11.776;2022-08-20T01:36:50;95310.84;;;17.84;100.00
34185;BME280;20454;48.100;11.776;2022-08-20T01:39:21;95316.84;;;17.83;100.00
34185;BME280;20454;48.100;11.776;2022-08-20T01:44:20;95316.00;;;17.82;100.00
34185;BME280;20454;48.100;11.776;2022-08-20T01:46:50;95324.53;;;17.86;100.00
34185;BME280;20454;48.100;11.776;2022-08-20T01:49:30;95323.31;;;17.87;100.00
34185;BME280;20454;48.100;11.776;2022-08-20T01:52:01;95322.16;;;17.88;100.00
34185;BME280;20454;48.100;11.776;2022-08-20T01:54:32;95314.88;;;17.87;100.00
34185;BME280;20454;48.100;11.776;2022-08-20T01:57:16;95316.47;;;17.84;100.00
34185;BME280;20454;48.100;11.776;2022-08-20T01:59:44;95322.91;;;17.85;100.00
34185;BME280;20454;48.100;11.776;2022-08-20T07:01:24;95463.94;;;18.78;100.00
34185;BME280;20454;48.100;11.776;2022-08-20T07:03:50;95465.22;;;18.81;100.00
34185;BME280;20454;48.100;11.776;2022-08-20T07:06:16;95468.97;;;18.88;100.00
34185;BME280;20454;48.100;11.776;2022-08-20T07:08:42;95460.53;;;18.88;100.00
34185;BME280;20454;48.100;11.776;2022-08-20T07:11:09;95468.09;;;18.84;100.00
34185;BME280;20454;48.100;11.776;2022-08-20T07:13:35;95473.72;;;18.84;100.00
34185;BME280;20454;48.100;11.776;2022-08-20T07:16:06;95476.84;;;18.79;100.00
34185;BME280;20454;48.100;11.776;2022-08-20T07:18:32;95480.44;;;18.76;100.00
34185;BME280;20454;48.100;11.776;2022-08-20T07:20:58;95483.63;;;18.75;100.00
34185;BME280;20454;48.100;11.776;2022-08-20T07:23:25;95480.38;;;18.73;100.00
34185;BME280;20454;48.100;11.776;2022-08-20T07:25:51;95489.94;;;18.68;100.00
34185;BME280;20454;48.100;11.776;2022-08-20T07:28:22;95489.41;;;18.63;100.00
34185;BME280;20454;48.100;11.776;2022-08-20T07:30:50;95490.63;;;18.62;100.00
34185;BME280;20454;48.100;11.776;2022-08-20T07:33:35;95498.69;;;18.63;100.00
34185;BME280;20454;48.100;11.776;2022-08-20T07:36:05;95489.06;;;18.64;100.00
34185;BME280;20454;48.100;11.776;2022-08-20T07:38:32;95494.31;;;18.66;100.00
34185;BME280;20454;48.100;11.776;2022-08-20T07:41:06;95500.75;;;18.66;100.00
34185;BME280;20454;48.100;11.776;2022-08-20T07:43:32;95500.03;;;18.69;100.00
34185;BME280;20454;48.100;11.776;2022-08-20T07:46:00;95501.66;;;18.70;100.00
34185;BME280;20454;48.100;11.776;2022-08-20T07:48:30;95498.53;;;18.75;100.00
34185;BME280;20454;48.100;11.776;2022-08-20T07:50:59;95499.03;;;18.81;100.00
34185;BME280;20454;48.100;11.776;2022-08-20T07:53:26;95506.38;;;18.85;100.00
34185;BME280;20454;48.100;11.776;2022-08-20T07:55:53;95497.13;;;18.85;100.00
34185;BME280;20454;48.100;11.776;2022-08-20T07:58:20;95504.38;;;18.86;100.00
34185;BME280;20454;48.100;11.776;2022-08-20T08:00:48;95509.19;;;18.85;100.00
34185;BME280;20454;48.100;11.776;2022-08-20T08:03:14;95506.38;;;18.85;100.00
34185;BME280;20454;48.100;11.776;2022-08-20T08:05:44;95503.56;;;18.85;100.00
34185;BME280;20454;48.100;11.776;2022-08-20T08:08:15;95499.94;;;18.85;100.00
34185;BME280;20454;48.100;11.776;2022-08-20T08:10:49;95505.03;;;18.79;100.00
34185;BME280;20454;48.100;11.776;2022-08-20T09:01:53;95538.66;;;18.12;100.00
34185;BME280;20454;48.100;11.776;2022-08-20T09:04:22;95531.38;;;18.11;100.00
34185;BME280;20454;48.100;11.776;2022-08-20T09:06:50;95535.84;;;18.12;100.00
34185;BME280;20454;48.100;11.776;2022-08-20T09:09:24;95542.44;;;18.19;100.00
34185;BME280;20454;48.100;11.776;2022-08-20T09:11:56;95536.50;;;18.24;100.00
34185;BME280;20454;48.100;11.776;2022-08-20T09:14:27;95550.28;;;18.29;100.00
34185;BME280;20454;48.100;11.776;2022-08-20T09:16:53;95549.78;;;18.24;100.00
34185;BME280;20454;48.100;11.776;2022-08-20T09:19:19;95553.41;;;18.24;100.00
34185;BME280;20454;48.100;11.776;2022-08-20T09:21:45;95555.78;;;18.22;100.00
34185;BME280;20454;48.100;11.776;2022-08-20T09:24:10;95549.34;;;18.22;100.00
34185;BME280;20454;48.100;11.776;2022-08-20T09:26:36;95540.91;;;18.22;100.00
34185;BME280;20454;48.100;11.776;2022-08-20T09:29:02;95551.69;;;18.20;100.00
34185;BME280;20454;48.100;11.776;2022-08-20T09:31:28;95545.25;;;18.19;100.00
34185;BME280;20454;48.100;11.776;2022-08-20T09:33:53;95560.16;;;18.20;100.00
34185;BME280;20454;48.100;11.776;2022-08-20T09:36:19;95554.22;;;18.25;100.00
34185;BME280;20454;48.100;11.776;2022-08-20T09:38:45;95547.75;;;18.24;100.00
34185;BME280;20454;48.100;11.776;2022-08-20T09:41:11;95552.31;;;18.29;100.00
34185;BME280;20454;48.100;11.776;2022-08-20T09:43:37;95545.22;;;18.35;100.00
34185;BME280;20454;48.100;11.776;2022-08-20T09:46:03;95554.63;;;18.42;100.00
34185;BME280;20454;48.100;11.776;2022-08-20T09:48:29;95537.94;;;18.53;100.00
34185;BME280;20454;48.100;11.776;2022-08-20T09:50:55;95538.59;;;18.65;100.00
34185;BME280;20454;48.100;11.776;2022-08-20T09:53:21;95536.81;;;18.76;100.00
34185;BME280;20454;48.100;11.776;2022-08-20T09:55:52;95537.84;;;18.87;100.00
34185;BME280;20454;48.100;11.776;2022-08-20T09:58:50;95539.22;;;18.97;100.00
34185;BME280;20454;48.100;11.776;2022-08-20T10:01:19;95543.06;;;19.08;100.00
34185;BME280;20454;48.100;11.776;2022-08-20T10:03:46;95537.97;;;19.17;100.00
34185;BME280;20454;48.100;11.776;2022-08-20T10:06:14;95531.81;;;19.30;100.00
34185;BME280;20454;48.100;11.776;2022-08-20T10:08:42;95538.06;;;19.43;100.00
34185;BME280;20454;48.100;11.776;2022-08-20T10:11:07;95545.56;;;19.58;100.00
34185;BME280;20454;48.100;11.776;2022-08-20T10:13:33;95544.91;;;19.64;100.00
34185;BME280;20454;48.100;11.776;2022-08-20T10:15:59;95541.78;;;19.73;100.00
34185;BME280;20454;48.100;11.776;2022-08-20T10:18:25;95547.94;;;19.78;100.00
34185;BME280;20454;48.100;11.776;2022-08-20T10:20:51;95540.72;;;19.81;100.00
34185;BME280;20454;48.100;11.776;2022-08-20T10:23:16;95548.06;;;19.85;100.00
34185;BME280;20454;48.100;11.776;2022-08-20T10:25:42;95544.03;;;19.86;98.99
34185;BME280;20454;48.100;11.776;2022-08-20T10:28:08;95536.03;;;19.92;100.00
34185;BME280;20454;48.100;11.776;2022-08-20T10:30:34;95536.03;;;19.92;100.00
34185;BME280;20454;48.100;11.776;2022-08-20T10:33:00;95534.72;;;19.86;100.00
34185;BME280;20454;48.100;11.776;2022-08-20T10:35:26;95545.28;;;19.89;100.00
34185;BME280;20454;48.100;11.776;2022-08-20T10:37:52;95534.78;;;19.89;99.66
34185;BME280;20454;48.100;11.776;2022-08-20T10:40:18;95536.88;;;19.92;100.00
34185;BME280;20454;48.100;11.776;2022-08-20T10:42:44;95542.94;;;19.94;100.00
34185;BME280;20454;48.100;11.776;2022-08-20T10:45:12;95550.59;;;19.94;98.90
34185;BME280;20454;48.100;11.776;2022-08-20T10:51:19;95549.72;;;19.90;100.00
34185;BME280;20454;48.100;11.776;2022-08-20T10:53:45;95546.91;;;19.90;100.00
34185;BME280;20454;48.100;11.776;2022-08-20T10:56:11;95542.94;;;19.94;100.00
34185;BME280;20454;48.100;11.776;2022-08-20T10:58:37;95547.06;;;20.00;100.00
34185;BME280;20454;48.100;11.776;2022-08-20T11:01:03;95543.19;;;20.08;100.00
34185;BME280;20454;48.100;11.776;2022-08-20T11:03:28;95536.75;;;20.11;100.00
34185;BME280;20454;48.100;11.776;2022-08-20T11:05:54;95540.81;;;20.14;100.00
34185;BME280;20454;48.100;11.776;2022-08-20T11:08:20;95544.09;;;20.16;100.00
34185;BME280;20454;48.100;11.776;2022-08-20T11:10:46;95536.41;;;20.16;100.00
34185;BME280;20454;48.100;11.776;2022-08-20T11:13:11;95532.06;;;20.22;100.00
34185;BME280;20454;48.100;11.776;2022-08-20T11:15:40;95542.75;;;20.36;100.00
34185;BME280;20454;48.100;11.776;2022-08-20T11:18:08;95531.97;;;20.45;100.00
34185;BME280;20454;48.100;11.776;2022-08-20T11:20:34;95527.22;;;20.52;99.69
34185;BME280;20454;48.100;11.776;2022-08-20T11:23:01;95528.97;;;20.60;99.10
34185;BME280;20454;48.100;11.776;2022-08-20T11:25:27;95525.34;;;20.63;98.11
34185;BME280;20454;48.100;11.776;2022-08-20T11:27:55;95529.09;;;20.70;97.76
34185;BME280;20454;48.100;11.776;2022-08-20T11:30:29;95529.59;;;20.79;97.02
34185;BME280;20454;48.100;11.776;2022-08-20T11:32:57;95521.25;;;20.90;96.46
34185;BME280;20454;48.100;11.776;2022-08-20T11:35:25;95516.53;;;21.04;95.55
34185;BME280;20454;48.100;11.776;2022-08-20T11:37:52;95515.91;;;21.21;95.44
34185;BME280;20454;48.100;11.776;2022-08-20T11:40:19;95512.84;;;21.37;92.58
34185;BME280;20454;48.100;11.776;2022-08-20T11:42:45;95517.44;;;21.55;91.36
34185;BME280;20454;48.100;11.776;2022-08-20T11:45:13;95518.81;;;21.68;92.19
34185;BME280;20454;48.100;11.776;2022-08-20T11:47:39;95517.28;;;21.81;92.01
34185;BME280;20454;48.100;11.776;2022-08-20T11:50:15;95518.50;;;21.84;88.86
34185;BME280;20454;48.100;11.776;2022-08-20T11:52:42;95514.84;;;21.80;87.88
34185;BME280;20454;48.100;11.776;2022-08-20T11:55:11;95513.28;;;21.86;88.92
34185;BME280;20454;48.100;11.776;2022-08-20T11:57:42;95512.91;;;21.94;89.56
34185;BME280;20454;48.100;11.776;2022-08-20T12:00:14;95515.75;;;21.98;91.11
34185;BME280;20454;48.100;11.776;2022-08-20T12:02:41;95510.03;;;21.87;91.17
34185;BME280;20454;48.100;11.776;2022-08-20T12:05:10;95518.13;;;21.85;90.14
34185;BME280;20454;48.100;11.776;2022-08-20T12:07:36;95517.31;;;21.85;90.03
34185;BME280;20454;48.100;11.776;2022-08-20T12:10:04;95523.41;;;21.87;90.90
34185;BME280;20454;48.100;11.776;2022-08-20T12:12:31;95522.19;;;21.88;90.11
34185;BME280;20454;48.100;11.776;2022-08-20T12:14:56;95526.63;;;21.85;89.83
34185;BME280;20454;48.100;11.776;2022-08-20T12:17:28;95527.75;;;21.74;88.97
34185;BME280;20454;48.100;11.776;2022-08-20T12:19:58;95519.97;;;21.64;91.87
34185;BME280;20454;48.100;11.776;2022-08-20T12:22:24;95530.41;;;21.56;93.57
34185;BME280;20454;48.100;11.776;2022-08-20T12:24:50;95525.88;;;21.48;94.32
34185;BME280;20454;48.100;11.776;2022-08-20T12:27:18;95523.00;;;21.41;92.92
34185;BME280;20454;48.100;11.776;2022-08-20T12:29:48;95526.16;;;21.36;92.75
34185;BME280;20454;48.100;11.776;2022-08-20T12:32:14;95530.66;;;21.41;94.72
34185;BME280;20454;48.100;11.776;2022-08-20T12:34:41;95525.47;;;21.46;95.73
34185;BME280;20454;48.100;11.776;2022-08-20T12:37:15;95523.91;;;21.56;93.15
34185;BME280;20454;48.100;11.776;2022-08-20T12:39:46;95529.69;;;21.66;91.74
34185;BME280;20454;48.100;11.776;2022-08-20T12:42:13;95520.84;;;21.71;91.62
34185;BME280;20454;48.100;11.776;2022-08-20T12:44:40;95520.03;;;21.71;92.77
34185;BME280;20454;48.100;11.776;2022-08-20T12:47:17;95520.44;;;21.69;91.89
34185;BME280;20454;48.100;11.776;2022-08-20T12:49:47;95514.75;;;21.69;93.37
34185;BME280;20454;48.100;11.776;2022-08-20T12:52:15;95516.78;;;21.72;92.10
34185;BME280;20454;48.100;11.776;2022-08-20T12:54:42;95506.34;;;21.80;93.26
34185;BME280;20454;48.100;11.776;2022-08-20T12:57:35;95516.09;;;21.86;91.79
34185;BME280;20454;48.100;11.776;2022-08-20T13:00:25;95505.19;;;21.88;88.54
34185;BME280;20454;48.100;11.776;2022-08-20T13:02:54;95505.22;;;21.95;91.03
34185;BME280;20454;48.100;11.776;2022-08-20T13:05:21;95502.06;;;22.03;92.52
34185;BME280;20454;48.100;11.776;2022-08-20T13:07:48;95511.03;;;22.16;90.49
34185;BME280;20454;48.100;11.776;2022-08-20T13:10:25;95500.94;;;22.22;88.95
34185;BME280;20454;48.100;11.776;2022-08-20T13:12:51;95507.50;;;22.29;86.41
34185;BME280;20454;48.100;11.776;2022-08-20T13:15:17;95508.72;;;22.39;87.01
34185;BME280;20454;48.100;11.776;2022-08-20T13:28:46;95498.47;;;22.99;81.43
34185;BME280;20454;48.100;11.776;2022-08-20T13:31:12;95505.75;;;23.00;81.50
34185;BME280;20454;48.100;11.776;2022-08-20T13:33:38;95499.69;;;22.98;77.02
34185;BME280;20454;48.100;11.776;2022-08-20T13:36:04;95492.81;;;23.06;77.76
34185;BME280;20454;48.100;11.776;2022-08-20T13:38:30;95493.66;;;23.13;78.92
34185;BME280;20454;48.100;11.776;2022-08-20T13:41:29;95454.28;;;23.01;81.00
34185;BME280;20454;48.100;11.776;2022-08-20T13:43:56;95466.06;;;23.14;74.96
34185;BME280;20454;48.100;11.776;2022-08-20T13:46:22;95485.97;;;23.31;80.57
34185;BME280;20454;48.100;11.776;2022-08-20T13:48:48;95453.91;;;23.13;82.73
34185;BME280;20454;48.100;11.776;2022-08-20T13:51:15;95475.44;;;23.21;81.41
34185;BME280;20454;48.100;11.776;2022-08-20T13:53:44;95477.47;;;23.28;78.16
34185;BME280;20454;48.100;11.776;2022-08-20T13:56:10;95455.94;;;23.20;82.25
34185;BME280;20454;48.100;11.776;2022-08-20T13:58:36;95438.47;;;23.14;83.76
34185;BME280;20454;48.100;11.776;2022-08-20T14:01:02;95451.50;;;23.19;81.03
34185;BME280;20454;48.100;11.776;2022-08-20T14:03:28;95443.34;;;23.14;82.96
34185;BME280;20454;48.100;11.776;2022-08-20T14:05:53;95436.06;;;23.16;76.01
34185;BME280;20454;48.100;11.776;2022-08-20T14:08:21;95453.13;;;23.20;77.18
34185;BME280;20454;48.100;11.776;2022-08-20T14:10:47;95455.16;;;23.16;81.00
34185;BME280;20454;48.100;11.776;2022-08-20T14:13:18;95464.81;;;23.04;82.33
34185;BME280;20454;48.100;11.776;2022-08-20T14:15:44;95461.94;;;22.94;85.95
34185;BME280;20454;48.100;11.776;2022-08-20T14:18:10;95452.59;;;22.76;83.82
34185;BME280;20454;48.100;11.776;2022-08-20T14:20:36;95459.84;;;22.63;88.02
34185;BME280;20454;48.100;11.776;2022-08-20T14:23:02;95465.88;;;22.47;89.10
34185;BME280;20454;48.100;11.776;2022-08-20T14:25:29;95462.13;;;22.29;91.80
34185;BME280;20454;48.100;11.776;2022-08-20T14:27:56;95462.81;;;22.12;92.20
34185;BME280;20454;48.100;11.776;2022-08-20T14:30:25;95474.47;;;21.97;92.30
34185;BME280;20454;48.100;11.776;2022-08-20T14:32:51;95474.34;;;21.79;92.57
34185;BME280;20454;48.100;11.776;2022-08-20T14:35:17;95484.31;;;21.63;93.13
34185;BME280;20454;48.100;11.776;2022-08-20T14:37:48;95476.47;;;21.42;93.20
34185;BME280;20454;48.100;11.776;2022-08-20T14:40:16;95480.81;;;21.29;94.66
34185;BME280;20454;48.100;11.776;2022-08-20T14:42:43;95489.16;;;21.15;95.08
34185;BME280;20454;48.100;11.776;2022-08-20T14:45:11;95480.94;;;21.00;96.19
34185;BME280;20454;48.100;11.776;2022-08-20T14:47:46;95479.22;;;20.92;97.28
34185;BME280;20454;48.100;11.776;2022-08-20T14:50:15;95473.41;;;20.78;98.64
34185;BME280;20454;48.100;11.776;2022-08-20T14:52:41;95472.88;;;20.65;99.80
34185;BME280;20454;48.100;11.776;2022-08-20T14:55:10;95486.06;;;20.54;100.00
34185;BME280;20454;48.100;11.776;2022-08-20T14:57:37;95491.91;;;20.39;100.00
34185;BME280;20454;48.100;11.776;2022-08-20T15:00:05;95498.53;;;20.21;98.50
34185;BME280;20454;48.100;11.776;2022-08-20T15:02:34;95512.47;;;20.07;98.00
34185;BME280;20454;48.100;11.776;2022-08-20T15:05:01;95531.22;;;19.92;97.98
34185;BME280;20454;48.100;11.776;2022-08-20T15:07:29;95540.63;;;19.74;97.39
34185;BME280;20454;48.100;11.776;2022-08-20T15:09:55;95542.75;;;19.58;98.30
34185;BME280;20454;48.100;11.776;2022-08-20T15:12:21;95536.81;;;19.40;98.46
34185;BME280;20454;48.100;11.776;2022-08-20T15:14:47;95542.50;;;19.21;98.64
34185;BME280;20454;48.100;11.776;2022-08-20T15:17:21;95544.47;;;18.98;98.07
34185;BME280;20454;48.100;11.776;2022-08-20T15:19:48;95543.78;;;18.82;98.58
34185;BME280;20454;48.100;11.776;2022-08-20T15:22:14;95542.75;;;18.71;100.00
34185;BME280;20454;48.100;11.776;2022-08-20T15:24:40;95555.00;;;18.60;100.00
34185;BME280;20454;48.100;11.776;2022-08-20T15:27:24;95544.69;;;18.48;100.00
34185;BME280;20454;48.100;11.776;2022-08-20T15:29:51;95534.84;;;18.39;100.00
34185;BME280;20454;48.100;11.776;2022-08-20T15:32:17;95546.03;;;18.35;100.00
34185;BME280;20454;48.100;11.776;2022-08-20T15:34:43;95554.78;;;18.30;100.00
34185;BME280;20454;48.100;11.776;2022-08-20T15:37:12;95545.69;;;18.21;100.00
34185;BME280;20454;48.100;11.776;2022-08-20T15:39:40;95548.72;;;18.13;100.00
34185;BME280;20454;48.100;11.776;2022-08-20T15:42:07;95549.31;;;18.03;100.00
34185;BME280;20454;48.100;11.776;2022-08-20T15:44:34;95547.88;;;17.93;100.00
34185;BME280;20454;48.100;11.776;2022-08-20T15:47:27;95555.81;;;17.88;100.00
34185;BME280;20454;48.100;11.776;2022-08-20T15:50:05;95556.00;;;17.79;100.00
34185;BME280;20454;48.100;11.776;2022-08-20T15:52:37;95552.28;;;17.75;100.00
34185;BME280;20454;48.100;11.776;2022-08-20T15:55:04;95557.75;;;17.68;100.00
34185;BME280;20454;48.100;11.776;2022-08-20T16:00:26;95566.09;;;17.65;100.00
34185;BME280;20454;48.100;11.776;2022-08-20T16:03:19;95563.59;;;17.60;100.00
34185;BME280;20454;48.100;11.776;2022-08-20T16:06:08;95557.13;;;17.59;100.00
34185;BME280;20454;48.100;11.776;2022-08-20T16:09:00;95566.75;;;17.58;100.00
34185;BME280;20454;48.100;11.776;2022-08-20T16:14:28;95558.22;;;17.55;100.00
34185;BME280;20454;48.100;11.776;2022-08-20T16:17:00;95558.22;;;17.55;100.00
34185;BME280;20454;48.100;11.776;2022-08-20T16:19:48;95555.41;;;17.55;100.00
34185;BME280;20454;48.100;11.776;2022-08-20T16:22:16;95549.34;;;17.53;100.00
34185;BME280;20454;48.100;11.776;2022-08-20T16:24:44;95554.59;;;17.54;100.00
34185;BME280;20454;48.100;11.776;2022-08-20T16:30:33;95558.94;;;17.52;100.00
34185;BME280;20454;48.100;11.776;2022-08-20T16:33:02;95556.50;;;17.50;100.00
34185;BME280;20454;48.100;11.776;2022-08-20T16:38:45;95561.75;;;17.52;100.00
34185;BME280;20454;48.100;11.776;2022-08-20T16:41:20;95530.72;;;17.33;100.00
34185;BME280;20454;48.100;11.776;2022-08-20T16:44:07;95532.63;;;17.29;100.00
34185;BME280;20454;48.100;11.776;2022-08-20T16:47:17;95566.75;;;17.43;100.00
34185;BME280;20454;48.100;11.776;2022-08-20T16:52:14;95560.25;;;17.39;100.00
34185;BME280;20454;48.100;11.776;2022-08-20T16:54:44;95540.09;;;17.21;100.00
34185;BME280;20454;48.100;11.776;2022-08-20T16:57:11;95575.34;;;17.34;100.00
34185;BME280;20454;48.100;11.776;2022-08-20T16:59:57;95573.38;;;17.35;100.00
34185;BME280;20454;48.100;11.776;2022-08-20T17:02:30;95556.47;;;17.19;100.00
34185;BME280;20454;48.100;11.776;2022-08-20T17:05:02;95532.81;;;17.05;100.00
34185;BME280;20454;48.100;11.776;2022-08-20T17:07:41;95559.22;;;17.16;100.00
34185;BME280;20454;48.100;11.776;2022-08-20T17:10:21;95577.88;;;17.24;100.00
34185;BME280;20454;48.100;11.776;2022-08-20T17:12:56;95574.81;;;17.29;100.00
34185;BME280;20454;48.100;11.776;2022-08-20T17:15:32;95578.47;;;17.29;100.00
34185;BME280;20454;48.100;11.776;2022-08-20T17:18:24;95587.34;;;17.31;100.00
34185;BME280;20454;48.100;11.776;2022-08-20T17:20:51;95584.44;;;17.28;100.00
34185;BME280;20454;48.100;11.776;2022-08-20T17:23:18;95604.31;;;17.35;100.00
34185;BME280;20454;48.100;11.776;2022-08-20T17:25:58;95601.13;;;17.36;100.00
34185;BME280;20454;48.100;11.776;2022-08-20T17:28:29;95609.56;;;17.36;100.00
34185;BME280;20454;48.100;11.776;2022-08-20T17:30:55;95609.22;;;17.38;100.00
34185;BME280;20454;48.100;11.776;2022-08-20T17:33:33;95610.50;;;17.40;100.00
34185;BME280;20454;48.100;11.776;2022-08-20T17:36:20;95607.34;;;17.42;100.00
34185;BME280;20454;48.100;11.776;2022-08-20T17:38:51;95605.34;;;17.42;100.00
34185;BME280;20454;48.100;11.776;2022-08-20T17:41:31;95604.16;;;17.43;100.00
34185;BME280;20454;48.100;11.776;2022-08-20T17:43:58;95601.72;;;17.42;100.00
34185;BME280;20454;48.100;11.776;2022-08-20T17:46:24;95601.72;;;17.42;100.00
34185;BME280;20454;48.100;11.776;2022-08-20T17:48:52;95594.00;;;17.39;100.00
34185;BME280;20454;48.100;11.776;2022-08-20T17:51:29;95597.25;;;17.41;100.00
34185;BME280;20454;48.100;11.776;2022-08-20T17:54:04;95600.44;;;17.39;100.00
34185;BME280;20454;48.100;11.776;2022-08-20T17:56:33;95602.06;;;17.40;100.00
34185;BME280;20454;48.100;11.776;2022-08-20T19:01:13;95618.00;;;17.36;100.00
34185;BME280;20454;48.100;11.776;2022-08-20T19:03:52;95615.31;;;17.40;100.00
34185;BME280;20454;48.100;11.776;2022-08-20T19:06:29;95615.31;;;17.40;100.00
34185;BME280;20454;48.100;11.776;2022-08-20T19:17:12;95614.16;;;17.41;100.00
34185;BME280;20454;48.100;11.776;2022-08-20T19:19:39;95610.97;;;17.42;100.00
34185;BME280;20454;48.100;11.776;2022-08-20T19:22:05;95608.06;;;17.39;100.00
34185;BME280;20454;48.100;11.776;2022-08-20T19:24:34;95613.78;;;17.42;100.00
34185;BME280;20454;48.100;11.776;2022-08-20T19:27:07;95614.94;;;17.41;100.00
34185;BME280;20454;48.100;11.776;2022-08-20T19:29:40;95612.50;;;17.40;100.00
34185;BME280;20454;48.100;11.776;2022-08-20T19:32:14;95614.22;;;17.44;100.00
34185;BME280;20454;48.100;11.776;2022-08-20T19:34:40;95609.78;;;17.43;100.00
34185;BME280;20454;48.100;11.776;2022-08-20T19:37:17;95606.16;;;17.43;100.00
34185;BME280;20454;48.100;11.776;2022-08-20T19:39:43;95606.50;;;17.41;100.00
34185;BME280;20454;48.100;11.776;2022-08-20T19:42:17;95605.34;;;17.42;100.00
34185;BME280;20454;48.100;11.776;2022-08-20T19:47:36;95606.50;;;17.41;100.00
34185;BME280;20454;48.100;11.776;2022-08-20T19:50:27;95607.34;;;17.42;100.00
34185;BME280;20454;48.100;11.776;2022-08-20T19:53:05;95605.34;;;17.42;100.00
34185;BME280;20454;48.100;11.776;2022-08-20T19:55:36;95607.69;;;17.40;100.00
34185;BME280;20454;48.100;11.776;2022-08-20T19:58:15;95598.81;;;17.38;100.00
34185;BME280;20454;48.100;11.776;2022-08-20T20:00:49;95602.06;;;17.40;100.00
34185;BME280;20454;48.100;11.776;2022-08-20T20:03:21;95598.44;;;17.40;100.00
34185;BME280;20454;48.100;11.776;2022-08-20T20:06:00;95590.81;;;17.40;100.00
34185;BME280;20454;48.100;11.776;2022-08-20T20:08:36;95598.44;;;17.40;100.00
34185;BME280;20454;48.100;11.776;2022-08-20T20:11:03;95593.88;;;17.35;100.00
34185;BME280;20454;48.100;11.776;2022-08-20T20:13:30;95597.84;;;17.34;100.00
34185;BME280;20454;48.100;11.776;2022-08-20T20:16:00;95599.88;;;17.34;100.00
34185;BME280;20454;48.100;11.776;2022-08-20T20:18:31;95595.41;;;17.33;100.00
34185;BME280;20454;48.100;11.776;2022-08-20T20:21:21;95597.75;;;17.31;100.00
34185;BME280;20454;48.100;11.776;2022-08-20T20:23:57;95593.78;;;17.32;100.00
34185;BME280;20454;48.100;11.776;2022-08-20T20:26:34;95586.91;;;17.29;100.00
34185;BME280;20454;48.100;11.776;2022-08-20T20:29:20;95572.34;;;17.27;100.00
34185;BME280;20454;48.100;11.776;2022-08-20T20:31:58;95576.34;;;17.26;100.00
34185;BME280;20454;48.100;11.776;2022-08-20T20:34:35;95576.72;;;17.25;100.00
34185;BME280;20454;48.100;11.776;2022-08-20T20:37:12;95578.28;;;17.22;100.00